Time;durP1;ratioP1;P1;durP2;ratioP2;P2;SDS_P1;SDS_P2;PMS_P1;PMS_P2;Temp;Humidity;BMP_temperature;BMP_pressure;BME280_temperature;BME280_humidity;BME280_pressure;Samples;Min_cycle;Max_cycle;Signal;HPM_P1;HPM_P2
2022/10/20 00:01:57;;;;;;;17.90;6.82;;;9.70;99.90;;;;;;5048325;28;20035;-63
2022/10/20 00:04:23;;;;;;;12.38;5.75;;;9.70;99.90;;;;;;5036650;28;20029;-62
2022/10/20 00:06:48;;;;;;;17.60;6.60;;;9.70;99.90;;;;;;5025479;28;20715;-63
2022/10/20 00:09:14;;;;;;;13.73;6.00;;;9.70;99.90;;;;;;5042155;28;20108;-63
2022/10/20 00:11:39;;;;;;;11.25;6.30;;;9.70;99.90;;;;;;5036093;28;20476;-63
2022/10/20 00:14:05;;;;;;;10.45;5.72;;;9.60;99.90;;;;;;5042416;28;20051;-64
2022/10/20 00:16:35;;;;;;;13.70;6.05;;;9.60;99.90;;;;;;5040636;28;20059;-63
2022/10/20 00:19:00;;;;;;;10.02;5.78;;;9.60;99.90;;;;;;5042389;28;20755;-63
2022/10/20 00:21:27;;;;;;;10.65;5.88;;;9.60;99.90;;;;;;5042735;28;20025;-63
2022/10/20 00:23:53;;;;;;;16.85;6.35;;;9.60;99.90;;;;;;5035696;28;20151;-63
2022/10/20 00:26:22;;;;;;;11.40;6.50;;;9.60;99.90;;;;;;5043685;28;20028;-62
2022/10/20 00:28:48;;;;;;;8.82;5.45;;;9.60;99.90;;;;;;5043144;28;20029;-64
2022/10/20 00:31:15;;;;;;;12.98;5.60;;;9.50;99.90;;;;;;5039249;28;20461;-64
2022/10/20 00:33:41;;;;;;;11.88;5.75;;;9.50;99.90;;;;;;5020813;28;20049;-63
2022/10/20 00:36:10;;;;;;;11.00;6.20;;;9.60;99.90;;;;;;5043821;28;20015;-62
2022/10/20 00:38:36;;;;;;;13.68;6.03;;;9.60;99.90;;;;;;5046777;28;20017;-64
2022/10/20 00:41:02;;;;;;;14.02;7.07;;;9.60;99.90;;;;;;5021301;28;20542;-63
2022/10/20 00:43:50;;;;;;;12.18;6.18;;;9.60;99.90;;;;;;5041231;28;20021;-63
2022/10/20 00:46:39;;;;;;;11.20;6.57;;;9.60;99.90;;;;;;5033587;28;20021;-62
2022/10/20 00:49:16;;;;;;;8.77;6.00;;;9.60;99.90;;;;;;5038314;28;20021;-63
2022/10/20 00:51:42;;;;;;;14.25;6.35;;;9.60;99.90;;;;;;5031273;28;20399;-64
2022/10/20 00:54:14;;;;;;;14.18;6.05;;;9.60;99.90;;;;;;5050027;28;20033;-63
2022/10/20 00:56:42;;;;;;;11.77;6.43;;;9.60;99.90;;;;;;5044854;28;20127;-64
2022/10/20 00:59:09;;;;;;;12.00;6.20;;;9.60;99.90;;;;;;5040940;28;20114;-62
2022/10/20 01:01:37;;;;;;;12.68;6.20;;;9.60;99.90;;;;;;5045560;28;20481;-63
2022/10/20 01:04:03;;;;;;;10.85;6.18;;;9.60;99.90;;;;;;5021052;28;20040;-63
2022/10/20 01:06:29;;;;;;;11.68;6.85;;;9.60;99.90;;;;;;5042990;28;20107;-63
2022/10/20 01:08:56;;;;;;;12.30;6.32;;;9.60;99.90;;;;;;5048571;28;20495;-63
2022/10/20 01:11:26;;;;;;;15.45;6.55;;;9.50;99.90;;;;;;5038772;28;20025;-62
2022/10/20 01:14:05;;;;;;;9.98;5.75;;;9.50;99.90;;;;;;5025780;28;20097;-62
2022/10/20 01:16:52;;;;;;;12.68;6.85;;;9.50;99.90;;;;;;5026577;28;20488;-62
2022/10/20 01:20:01;;;;;;;12.95;6.50;;;9.60;99.90;;;;;;5047564;28;20029;-62
2022/10/20 01:22:38;;;;;;;12.75;6.15;;;9.60;99.90;;;;;;5020800;28;20460;-63
2022/10/20 01:25:16;;;;;;;16.05;6.70;;;9.50;99.90;;;;;;5032125;28;20068;-63
2022/10/20 01:27:57;;;;;;;15.13;6.65;;;9.50;99.90;;;;;;5029525;28;20122;-63
2022/10/20 01:30:23;;;;;;;11.05;5.85;;;9.60;99.90;;;;;;5032335;28;20029;-62
2022/10/20 01:33:12;;;;;;;29.85;7.57;;;9.60;99.90;;;;;;5042722;28;20038;-64
2022/10/20 01:35:41;;;;;;;15.00;6.80;;;9.60;99.90;;;;;;5037793;28;20045;-64
2022/10/20 01:38:25;;;;;;;10.10;5.10;;;9.60;99.90;;;;;;5044306;28;20063;-62
2022/10/20 01:41:12;;;;;;;13.93;5.80;;;9.60;99.90;;;;;;5038196;28;20026;-62
2022/10/20 01:43:40;;;;;;;9.10;5.50;;;9.60;99.90;;;;;;5043503;28;20048;-63
2022/10/20 01:46:09;;;;;;;10.82;6.00;;;9.60;99.90;;;;;;5038998;28;20017;-62
2022/10/20 01:48:37;;;;;;;15.10;6.25;;;9.70;99.90;;;;;;5038631;28;20014;-63
2022/10/20 01:51:03;;;;;;;11.18;6.32;;;9.70;99.90;;;;;;5037759;28;20025;-63
2022/10/20 01:53:29;;;;;;;13.05;6.40;;;9.70;99.90;;;;;;5037585;28;20523;-63
2022/10/20 01:55:57;;;;;;;9.70;6.40;;;9.70;99.90;;;;;;5023534;28;20115;-63
2022/10/20 01:58:44;;;;;;;10.60;6.50;;;9.60;99.90;;;;;;5043109;28;20094;-63
2022/10/20 02:01:42;;;;;;;11.07;5.80;;;9.60;99.90;;;;;;5045101;28;20036;-63
2022/10/20 02:04:09;;;;;;;10.40;5.90;;;9.60;99.90;;;;;;5030029;28;20416;-62
2022/10/20 02:06:52;;;;;;;14.27;6.20;;;9.60;99.90;;;;;;5040354;28;20116;-63
2022/10/20 02:09:26;;;;;;;9.70;5.45;;;9.60;99.90;;;;;;5039997;28;20025;-63
2022/10/20 02:12:03;;;;;;;11.43;6.80;;;9.60;99.90;;;;;;5028259;28;20044;-63
2022/10/20 02:14:31;;;;;;;11.45;6.07;;;9.60;99.90;;;;;;5041620;28;20033;-63
2022/10/20 02:17:03;;;;;;;9.98;5.88;;;9.70;99.90;;;;;;5032944;28;20086;-63
2022/10/20 02:19:35;;;;;;;17.70;5.78;;;9.70;99.90;;;;;;5039315;28;20033;-62
2022/10/20 02:22:01;;;;;;;10.02;6.03;;;9.70;99.90;;;;;;5040542;28;20439;-63
2022/10/20 02:24:32;;;;;;;10.38;5.13;;;9.70;99.90;;;;;;5040387;28;20036;-62
2022/10/20 02:27:03;;;;;;;8.98;5.95;;;9.70;99.90;;;;;;5035979;28;20475;-63
2022/10/20 02:29:33;;;;;;;9.32;5.63;;;9.70;99.90;;;;;;5039903;28;20036;-62
2022/10/20 02:31:59;;;;;;;10.73;6.10;;;9.70;99.90;;;;;;5040674;28;20021;-63
2022/10/20 02:34:26;;;;;;;9.75;5.30;;;9.80;99.90;;;;;;5029475;28;20041;-62
2022/10/20 02:36:55;;;;;;;8.30;5.60;;;9.80;99.90;;;;;;5045507;28;20384;-63
2022/10/20 02:39:21;;;;;;;9.60;5.30;;;9.80;99.90;;;;;;5028788;28;20093;-66
2022/10/20 02:41:46;;;;;;;9.43;5.70;;;9.80;99.90;;;;;;5043375;28;20068;-65
2022/10/20 02:44:12;;;;;;;12.30;6.30;;;9.90;99.90;;;;;;5042515;28;20032;-66
2022/10/20 02:46:37;;;;;;;10.15;5.35;;;9.90;99.90;;;;;;5045556;28;20029;-66
2022/10/20 02:49:03;;;;;;;13.80;5.53;;;9.90;99.90;;;;;;5039808;28;20028;-65
2022/10/20 02:51:28;;;;;;;8.23;4.47;;;9.90;99.90;;;;;;5028690;28;20067;-65
2022/10/20 02:53:54;;;;;;;9.93;5.55;;;9.90;99.90;;;;;;5042523;28;20059;-67
2022/10/20 02:56:21;;;;;;;9.30;5.50;;;10.00;99.90;;;;;;5022955;28;20036;-64
2022/10/20 02:58:47;;;;;;;9.45;5.40;;;9.90;99.90;;;;;;5037305;28;20030;-67
2022/10/20 03:01:12;;;;;;;11.10;5.03;;;9.90;99.90;;;;;;5035006;28;20025;-68
2022/10/20 03:03:38;;;;;;;7.97;5.35;;;9.90;99.90;;;;;;5029511;28;20120;-65
2022/10/20 03:06:14;;;;;;;8.43;5.18;;;10.00;99.90;;;;;;5042210;28;20018;-65
2022/10/20 03:08:40;;;;;;;12.85;5.80;;;10.00;99.90;;;;;;5032148;28;20056;-65
2022/10/20 03:11:06;;;;;;;9.32;5.15;;;9.90;99.90;;;;;;5039962;28;20025;-66
2022/10/20 03:13:32;;;;;;;15.50;5.38;;;9.90;99.90;;;;;;5044831;28;20136;-66
2022/10/20 03:15:58;;;;;;;6.78;4.90;;;9.80;99.90;;;;;;5036884;28;20057;-65
2022/10/20 03:18:23;;;;;;;12.55;5.07;;;9.80;99.90;;;;;;5042385;28;20541;-65
2022/10/20 03:20:50;;;;;;;8.50;4.35;;;9.80;99.90;;;;;;5041608;28;20074;-66
2022/10/20 03:23:16;;;;;;;13.15;5.55;;;9.70;99.90;;;;;;5043851;28;20627;-66
2022/10/20 03:25:42;;;;;;;11.63;4.50;;;9.70;99.90;;;;;;5033011;28;20041;-66
2022/10/20 03:28:07;;;;;;;6.38;4.57;;;9.70;99.90;;;;;;5041126;28;20021;-65
2022/10/20 03:30:33;;;;;;;12.85;5.22;;;9.70;99.90;;;;;;5045714;28;20024;-65
2022/10/20 03:32:59;;;;;;;7.10;4.63;;;9.70;99.90;;;;;;5030430;28;20037;-66
2022/10/20 03:35:24;;;;;;;11.02;5.53;;;9.70;99.90;;;;;;5025108;28;20674;-66
2022/10/20 03:37:50;;;;;;;7.57;5.07;;;9.60;99.90;;;;;;5029957;28;20072;-65
2022/10/20 03:40:15;;;;;;;6.70;4.68;;;9.70;99.90;;;;;;5035221;28;20033;-65
2022/10/20 03:42:41;;;;;;;8.60;4.90;;;9.70;99.90;;;;;;5042493;28;20034;-66
2022/10/20 03:45:07;;;;;;;9.45;5.32;;;9.70;99.90;;;;;;5043642;28;20091;-66
2022/10/20 03:47:33;;;;;;;10.73;6.68;;;9.60;99.90;;;;;;5043419;28;20037;-66
2022/10/20 03:49:58;;;;;;;9.52;5.40;;;9.70;99.90;;;;;;5041101;28;20032;-66
2022/10/20 03:52:24;;;;;;;8.60;4.70;;;9.80;99.90;;;;;;5032465;28;20523;-66
2022/10/20 03:54:49;;;;;;;9.02;5.18;;;9.80;99.90;;;;;;5051917;28;20440;-66
2022/10/20 03:57:15;;;;;;;10.40;5.50;;;9.90;99.90;;;;;;5052637;28;20037;-65
2022/10/20 03:59:41;;;;;;;8.43;4.88;;;9.90;99.90;;;;;;5041727;28;20106;-67
2022/10/20 04:02:06;;;;;;;16.17;5.25;;;9.90;99.90;;;;;;5050163;28;20025;-66
2022/10/20 04:04:32;;;;;;;5.50;4.13;;;9.90;99.90;;;;;;5050135;28;20043;-66
2022/10/20 04:06:58;;;;;;;11.60;5.63;;;9.90;99.90;;;;;;5045405;28;20546;-65
2022/10/20 04:09:23;;;;;;;8.10;4.78;;;9.80;99.90;;;;;;5030663;28;20059;-66
2022/10/20 04:11:49;;;;;;;11.18;4.53;;;9.90;99.90;;;;;;5039684;28;20022;-65
2022/10/20 04:14:14;;;;;;;8.30;4.40;;;9.90;99.90;;;;;;5045509;28;20147;-66
2022/10/20 04:16:40;;;;;;;7.15;4.68;;;9.90;99.90;;;;;;5052626;28;20029;-66
2022/10/20 04:19:06;;;;;;;8.05;4.43;;;9.90;99.90;;;;;;5042041;28;20072;-66
2022/10/20 04:21:32;;;;;;;6.90;4.35;;;9.90;99.90;;;;;;5035233;28;20087;-66
2022/10/20 04:23:57;;;;;;;9.32;5.20;;;9.90;99.90;;;;;;5049460;28;20029;-66
2022/10/20 04:26:23;;;;;;;8.25;5.32;;;9.90;99.90;;;;;;5047683;28;20021;-67
2022/10/20 04:28:49;;;;;;;8.20;5.18;;;9.90;99.90;;;;;;5043759;28;20098;-66
2022/10/20 04:31:14;;;;;;;12.23;4.95;;;9.90;99.90;;;;;;5036141;28;20099;-66
2022/10/20 04:33:40;;;;;;;7.00;4.22;;;9.90;99.90;;;;;;5049692;28;20025;-67
2022/10/20 04:36:08;;;;;;;8.52;4.80;;;9.90;99.90;;;;;;5051582;28;20446;-66
2022/10/20 04:38:34;;;;;;;6.85;4.30;;;9.80;99.90;;;;;;5042010;28;20166;-67
2022/10/20 04:41:03;;;;;;;8.90;4.82;;;9.80;99.90;;;;;;5048158;28;20099;-66
2022/10/20 04:43:29;;;;;;;6.95;4.32;;;9.80;99.90;;;;;;5049847;28;20081;-66
2022/10/20 04:45:59;;;;;;;12.75;4.57;;;9.80;99.90;;;;;;5049100;28;20021;-66
2022/10/20 04:48:25;;;;;;;11.25;4.95;;;9.80;99.90;;;;;;5033548;28;20032;-66
2022/10/20 04:51:05;;;;;;;6.00;4.35;;;9.90;99.90;;;;;;5040807;28;20036;-68
2022/10/20 04:53:31;;;;;;;8.13;4.38;;;9.90;99.90;;;;;;5051730;28;20174;-66
2022/10/20 04:55:57;;;;;;;7.43;3.92;;;9.80;99.90;;;;;;5045862;28;20572;-65
2022/10/20 04:58:23;;;;;;;11.48;5.80;;;9.80;99.90;;;;;;5037373;28;20044;-65
2022/10/20 05:00:49;;;;;;;7.35;4.40;;;9.90;99.90;;;;;;5048636;28;20397;-67
2022/10/20 05:03:15;;;;;;;8.32;4.28;;;9.90;99.90;;;;;;5064434;28;20032;-64
2022/10/20 05:05:41;;;;;;;7.43;4.82;;;10.00;99.90;;;;;;5055030;28;20025;-65
2022/10/20 05:08:06;;;;;;;6.97;3.70;;;10.00;99.90;;;;;;5039765;28;20030;-66
2022/10/20 05:10:32;;;;;;;11.10;4.97;;;10.10;99.90;;;;;;5046786;28;20124;-66
2022/10/20 05:12:57;;;;;;;6.70;4.03;;;10.20;99.90;;;;;;5045756;28;20036;-66
2022/10/20 05:15:23;;;;;;;10.07;4.63;;;10.10;99.90;;;;;;5042176;28;20053;-65
2022/10/20 05:17:49;;;;;;;8.25;4.53;;;10.10;99.90;;;;;;5044767;28;20087;-65
2022/10/20 05:20:14;;;;;;;9.77;4.97;;;10.20;99.90;;;;;;5049309;28;20025;-66
2022/10/20 05:22:40;;;;;;;8.85;4.18;;;10.20;99.90;;;;;;5048128;28;20168;-66
2022/10/20 05:25:06;;;;;;;12.02;4.65;;;10.20;99.90;;;;;;5050203;28;20051;-65
2022/10/20 05:27:31;;;;;;;8.07;4.65;;;10.30;99.90;;;;;;5051694;28;20025;-64
2022/10/20 05:29:57;;;;;;;9.38;3.97;;;10.30;99.90;;;;;;5042851;28;20526;-66
2022/10/20 05:32:22;;;;;;;22.70;4.38;;;10.20;99.90;;;;;;5044657;28;20025;-65
2022/10/20 05:34:48;;;;;;;8.10;4.35;;;10.20;99.90;;;;;;5046027;28;20030;-65
2022/10/20 05:37:13;;;;;;;6.82;4.88;;;10.20;99.90;;;;;;5044792;28;20031;-65
2022/10/20 05:39:39;;;;;;;7.55;4.95;;;10.20;99.90;;;;;;5044623;28;20488;-65
2022/10/20 05:42:05;;;;;;;7.60;4.68;;;10.20;99.90;;;;;;5042235;28;20104;-65
2022/10/20 05:44:30;;;;;;;7.38;4.60;;;10.20;99.90;;;;;;5048567;28;20033;-65
2022/10/20 05:46:56;;;;;;;6.47;4.25;;;10.20;99.90;;;;;;5042024;28;20057;-66
2022/10/20 05:49:22;;;;;;;9.00;4.20;;;10.10;99.90;;;;;;5047336;28;20032;-66
2022/10/20 05:51:48;;;;;;;8.88;4.85;;;10.10;99.90;;;;;;5047797;28;20040;-65
2022/10/20 05:54:14;;;;;;;8.73;5.05;;;10.10;99.90;;;;;;5041383;28;20100;-65
2022/10/20 05:56:40;;;;;;;10.48;5.72;;;10.10;99.90;;;;;;5040236;28;20026;-66
2022/10/20 05:59:06;;;;;;;8.82;5.80;;;10.10;99.90;;;;;;5042279;28;20029;-64
2022/10/20 06:01:46;;;;;;;12.32;5.65;;;10.10;99.90;;;;;;5044637;28;20025;-65
2022/10/20 06:04:16;;;;;;;10.23;6.00;;;10.20;99.90;;;;;;5036832;28;20056;-65
2022/10/20 06:06:43;;;;;;;9.55;5.30;;;10.20;99.90;;;;;;5039246;28;20508;-67
2022/10/20 06:09:10;;;;;;;10.77;5.63;;;10.30;99.90;;;;;;5041471;28;20044;-65
2022/10/20 06:11:36;;;;;;;11.50;5.10;;;10.30;99.90;;;;;;5041365;28;20033;-66
2022/10/20 06:14:02;;;;;;;10.02;5.13;;;10.30;99.90;;;;;;5047352;28;20036;-65
2022/10/20 06:16:28;;;;;;;11.82;4.95;;;10.30;99.90;;;;;;5039223;28;20040;-66
2022/10/20 06:18:56;;;;;;;15.15;6.30;;;10.30;99.90;;;;;;5043639;28;20029;-65
2022/10/20 06:21:27;;;;;;;11.18;5.10;;;10.30;99.90;;;;;;5046937;28;20036;-66
2022/10/20 06:23:53;;;;;;;9.38;5.85;;;10.40;99.90;;;;;;5049749;28;20032;-66
2022/10/20 06:26:24;;;;;;;9.13;5.43;;;10.40;99.90;;;;;;5034124;28;20036;-66
2022/10/20 06:28:53;;;;;;;8.60;5.32;;;10.50;99.90;;;;;;5046847;28;20067;-66
2022/10/20 06:31:23;;;;;;;7.80;5.75;;;10.60;99.90;;;;;;5036971;28;20078;-66
2022/10/20 06:33:49;;;;;;;8.32;5.47;;;10.70;99.90;;;;;;5042764;28;20403;-65
2022/10/20 06:36:15;;;;;;;10.68;6.15;;;10.70;99.90;;;;;;5044800;28;20033;-66
2022/10/20 06:38:42;;;;;;;10.45;6.25;;;10.70;99.90;;;;;;5047757;28;20033;-65
2022/10/20 06:41:10;;;;;;;16.70;6.45;;;10.80;99.90;;;;;;5042048;28;20057;-66
2022/10/20 06:43:36;;;;;;;13.23;6.10;;;10.80;99.90;;;;;;5039821;28;20025;-66
2022/10/20 06:46:04;;;;;;;14.18;6.40;;;10.80;99.90;;;;;;5028597;28;20079;-66
2022/10/20 06:48:30;;;;;;;8.60;5.90;;;10.90;99.90;;;;;;5040215;28;20021;-66
2022/10/20 06:50:57;;;;;;;10.75;5.13;;;10.90;99.90;;;;;;5026470;28;20420;-65
2022/10/20 06:53:24;;;;;;;8.40;5.88;;;10.90;99.90;;;;;;5026557;28;20049;-67
2022/10/20 06:56:01;;;;;;;10.52;6.05;;;11.00;99.90;;;;;;5045878;28;20488;-66
2022/10/20 06:58:27;;;;;;;12.13;6.18;;;11.00;99.90;;;;;;5057099;28;20039;-67
2022/10/20 07:01:09;;;;;;;8.45;6.05;;;11.00;99.90;;;;;;5010729;28;20041;-66
2022/10/20 07:03:36;;;;;;;12.88;6.00;;;11.10;99.90;;;;;;5045693;28;20382;-65
2022/10/20 07:06:03;;;;;;;14.50;5.93;;;11.10;99.90;;;;;;5045716;28;20025;-64
2022/10/20 07:08:30;;;;;;;7.90;5.35;;;11.20;99.90;;;;;;5029987;28;20033;-66
2022/10/20 07:11:08;;;;;;;8.32;5.47;;;11.30;99.90;;;;;;5039477;28;20076;-65
2022/10/20 07:13:35;;;;;;;11.10;7.10;;;11.40;99.90;;;;;;5046316;28;20056;-67
2022/10/20 07:16:01;;;;;;;8.80;5.85;;;11.50;99.90;;;;;;5045245;28;20112;-66
2022/10/20 07:18:28;;;;;;;7.10;5.40;;;11.50;99.90;;;;;;5046178;28;20136;-65
2022/10/20 07:21:03;;;;;;;9.77;5.90;;;11.60;99.90;;;;;;5041416;28;20039;-66
2022/10/20 07:23:30;;;;;;;9.80;4.72;;;11.70;99.90;;;;;;5019605;28;20369;-65
2022/10/20 07:26:04;;;;;;;8.88;5.82;;;11.70;99.90;;;;;;5041995;28;20029;-67
2022/10/20 07:28:30;;;;;;;13.02;5.40;;;11.80;99.90;;;;;;5045865;28;20079;-66
2022/10/20 07:30:56;;;;;;;11.32;5.63;;;11.80;99.90;;;;;;5038418;28;20021;-65
2022/10/20 07:33:21;;;;;;;8.27;5.47;;;11.80;99.90;;;;;;5038106;28;20052;-65
2022/10/20 07:35:48;;;;;;;12.10;5.72;;;11.80;99.90;;;;;;5013508;28;20051;-65
2022/10/20 07:38:14;;;;;;;7.18;4.90;;;11.80;99.90;;;;;;5046812;28;20117;-64
2022/10/20 07:40:40;;;;;;;8.73;5.63;;;11.80;99.90;;;;;;5032618;28;20124;-64
2022/10/20 07:43:06;;;;;;;11.10;5.13;;;11.90;99.90;;;;;;5038865;28;20466;-64
2022/10/20 07:45:31;;;;;;;10.55;5.13;;;11.90;99.90;;;;;;5044769;28;20055;-65
2022/10/20 07:47:58;;;;;;;13.43;5.10;;;11.90;99.90;;;;;;5038652;28;20544;-67
2022/10/20 07:50:24;;;;;;;7.25;5.28;;;11.90;99.90;;;;;;5039048;28;20112;-65
2022/10/20 07:52:52;;;;;;;16.08;7.15;;;11.90;99.90;;;;;;5040779;28;20037;-66
2022/10/20 07:55:19;;;;;;;11.07;6.22;;;12.00;99.90;;;;;;5045618;28;20020;-65
2022/10/20 07:57:45;;;;;;;8.75;5.55;;;12.10;99.90;;;;;;5040773;28;20104;-65
2022/10/20 08:00:11;;;;;;;7.03;5.65;;;12.10;99.90;;;;;;5030284;28;20025;-66
2022/10/20 08:02:39;;;;;;;14.45;6.35;;;12.20;99.90;;;;;;5044723;28;20040;-66
2022/10/20 08:05:05;;;;;;;12.27;6.13;;;12.30;99.90;;;;;;5039566;28;20020;-66
2022/10/20 08:07:31;;;;;;;8.52;5.25;;;12.50;99.90;;;;;;5024060;28;20530;-65
2022/10/20 08:09:56;;;;;;;13.90;5.63;;;12.60;99.90;;;;;;5041183;28;20049;-66
2022/10/20 08:12:22;;;;;;;10.95;5.75;;;12.70;99.90;;;;;;5038659;28;20103;-66
2022/10/20 08:14:48;;;;;;;11.80;6.30;;;12.80;99.90;;;;;;5035152;28;20036;-67
2022/10/20 08:17:13;;;;;;;17.20;6.65;;;12.90;99.90;;;;;;5049196;28;20033;-66
2022/10/20 08:19:39;;;;;;;10.35;6.15;;;12.90;99.90;;;;;;5039754;28;20036;-66
2022/10/20 08:22:04;;;;;;;10.85;5.70;;;13.00;99.90;;;;;;5033887;28;20057;-66
2022/10/20 08:24:30;;;;;;;9.15;5.13;;;13.00;99.90;;;;;;5021355;28;20053;-66
2022/10/20 08:26:55;;;;;;;12.20;5.25;;;13.00;99.90;;;;;;5041850;28;20499;-66
2022/10/20 08:29:21;;;;;;;9.07;5.03;;;13.10;99.90;;;;;;5044768;28;20032;-67
2022/10/20 08:31:47;;;;;;;11.38;5.68;;;13.20;99.90;;;;;;5038704;28;20456;-65
2022/10/20 08:34:12;;;;;;;10.43;6.18;;;13.10;99.90;;;;;;5038772;28;20498;-68
2022/10/20 08:36:38;;;;;;;8.23;5.55;;;13.20;99.90;;;;;;5041701;28;20492;-66
2022/10/20 08:39:04;;;;;;;9.43;5.63;;;13.30;99.90;;;;;;4991646;28;20072;-67
2022/10/20 08:41:32;;;;;;;8.82;5.65;;;13.30;99.90;;;;;;5045934;28;20075;-66
2022/10/20 08:44:00;;;;;;;9.02;5.40;;;13.40;99.90;;;;;;5024201;28;20025;-66
2022/10/20 08:46:32;;;;;;;7.68;5.35;;;13.50;99.90;;;;;;5040074;28;20119;-66
2022/10/20 08:48:58;;;;;;;12.25;5.65;;;13.60;99.90;;;;;;5041543;28;20388;-66
2022/10/20 08:51:29;;;;;;;9.55;5.28;;;13.60;99.90;;;;;;5043710;28;20112;-67
2022/10/20 08:53:57;;;;;;;8.10;4.97;;;13.70;99.90;;;;;;5044864;28;20104;-67
2022/10/20 08:56:24;;;;;;;10.70;5.32;;;13.60;99.90;;;;;;5041915;28;20024;-67
2022/10/20 08:58:50;;;;;;;12.30;5.25;;;13.60;99.90;;;;;;5041385;28;20045;-66
2022/10/20 09:01:22;;;;;;;8.95;5.43;;;13.50;99.90;;;;;;5013091;28;20087;-65
2022/10/20 09:04:30;;;;;;;7.30;4.88;;;13.40;99.90;;;;;;5042946;28;20036;-66
2022/10/20 09:07:00;;;;;;;8.60;5.25;;;13.40;99.90;;;;;;5043037;28;20711;-66
2022/10/20 09:09:29;;;;;;;8.18;5.78;;;13.20;99.90;;;;;;5043807;28;20033;-65
2022/10/20 09:12:03;;;;;;;12.38;6.05;;;13.20;99.90;;;;;;5041357;28;20033;-66
2022/10/20 09:14:32;;;;;;;8.27;5.85;;;13.10;99.90;;;;;;5050300;28;20451;-66
2022/10/20 09:16:57;;;;;;;8.65;5.68;;;13.00;99.90;;;;;;5048634;28;20029;-67
2022/10/20 09:19:23;;;;;;;8.70;5.45;;;12.90;99.90;;;;;;5048944;28;20092;-65
2022/10/20 09:21:52;;;;;;;9.95;5.93;;;12.90;99.90;;;;;;5043425;28;20033;-65
2022/10/20 09:24:19;;;;;;;8.90;5.80;;;12.90;99.90;;;;;;5047917;28;20037;-65
2022/10/20 09:26:47;;;;;;;9.38;5.45;;;12.90;99.90;;;;;;5048083;28;20396;-65
2022/10/20 09:29:17;;;;;;;13.13;6.05;;;12.90;99.90;;;;;;5044769;28;20032;-65
2022/10/20 09:31:48;;;;;;;8.93;5.40;;;13.00;99.90;;;;;;5046369;28;20032;-65
2022/10/20 09:34:33;;;;;;;8.55;5.88;;;13.00;99.90;;;;;;5043153;28;20480;-65
2022/10/20 09:37:11;;;;;;;7.25;5.03;;;13.00;99.90;;;;;;5047301;28;20037;-65
2022/10/20 09:39:45;;;;;;;11.10;6.13;;;13.00;99.90;;;;;;5049540;28;20021;-66
2022/10/20 09:42:26;;;;;;;14.63;6.32;;;13.10;99.90;;;;;;5044291;28;20028;-65
2022/10/20 09:45:20;;;;;;;9.27;5.70;;;13.10;99.90;;;;;;5047869;28;20106;-64
2022/10/20 09:47:50;;;;;;;9.18;5.60;;;13.20;99.90;;;;;;5025731;28;20040;-65
2022/10/20 09:50:27;;;;;;;10.50;6.22;;;13.40;99.90;;;;;;5044400;28;20622;-65
2022/10/20 09:52:53;;;;;;;9.95;5.68;;;13.50;99.90;;;;;;5040737;28;20052;-65
2022/10/20 09:55:29;;;;;;;11.93;6.28;;;13.60;99.90;;;;;;5040372;28;20119;-66
2022/10/20 09:57:58;;;;;;;9.90;6.45;;;13.80;99.90;;;;;;5037949;28;20029;-64
2022/10/20 10:03:19;;;;;;;14.98;6.47;;;14.00;99.90;;;;;;5062670;28;20044;-66
2022/10/20 10:05:49;;;;;;;15.20;7.03;;;14.10;99.90;;;;;;5060898;28;20491;-67
2022/10/20 10:08:16;;;;;;;9.35;5.75;;;14.30;99.90;;;;;;5062572;28;20391;-66
2022/10/20 10:10:44;;;;;;;15.95;6.55;;;14.40;99.90;;;;;;5054878;28;20437;-68
2022/10/20 10:13:29;;;;;;;9.32;6.57;;;14.30;99.90;;;;;;5046429;28;20538;-67
2022/10/20 10:16:04;;;;;;;10.45;5.97;;;14.30;99.90;;;;;;5045135;28;20063;-68
2022/10/20 10:18:30;;;;;;;10.60;7.30;;;14.30;99.90;;;;;;5055375;28;20040;-67
2022/10/20 10:21:02;;;;;;;14.63;6.65;;;14.20;99.90;;;;;;5042059;28;20033;-69
2022/10/20 10:23:32;;;;;;;9.88;6.25;;;14.10;99.90;;;;;;5044472;28;20404;-68
2022/10/20 10:25:57;;;;;;;13.75;7.20;;;14.00;99.90;;;;;;5046432;28;20117;-67
2022/10/20 10:28:37;;;;;;;10.48;6.55;;;13.90;99.90;;;;;;5042434;28;20056;-69
2022/10/20 10:31:17;;;;;;;10.75;6.80;;;14.00;99.90;;;;;;5041429;28;20021;-67
2022/10/20 10:33:42;;;;;;;15.70;7.43;;;14.30;99.90;;;;;;5053401;28;20033;-67
2022/10/20 10:36:24;;;;;;;12.02;6.85;;;14.40;99.90;;;;;;5052325;28;20085;-69
2022/10/20 10:38:49;;;;;;;10.32;6.28;;;14.40;99.90;;;;;;5023070;28;20036;-67
2022/10/20 10:41:24;;;;;;;13.60;6.95;;;14.50;99.90;;;;;;5026615;28;20021;-66
2022/10/20 10:44:06;;;;;;;14.27;6.68;;;14.40;99.90;;;;;;5051513;28;20033;-66
2022/10/20 10:46:37;;;;;;;10.88;7.20;;;14.30;99.90;;;;;;5035809;28;20101;-67
2022/10/20 10:49:19;;;;;;;10.43;7.32;;;14.30;99.90;;;;;;5049607;28;20056;-67
2022/10/20 10:52:13;;;;;;;10.43;6.95;;;14.20;99.90;;;;;;5047947;28;20035;-66
2022/10/20 10:54:54;;;;;;;16.48;7.00;;;14.00;99.90;;;;;;5049371;28;20112;-68
2022/10/20 10:57:41;;;;;;;13.27;7.47;;;14.10;99.90;;;;;;5047413;28;20485;-66
2022/10/20 11:00:16;;;;;;;12.27;6.88;;;14.00;99.90;;;;;;5019933;28;20499;-67
2022/10/20 11:02:50;;;;;;;12.75;7.13;;;14.00;99.90;;;;;;5024133;28;20061;-69
2022/10/20 11:05:18;;;;;;;14.07;7.13;;;14.00;99.90;;;;;;5038795;28;20014;-67
2022/10/20 11:08:16;;;;;;;13.00;7.55;;;14.00;99.90;;;;;;5037600;28;20029;-68
2022/10/20 11:10:58;;;;;;;16.83;7.28;;;13.90;99.90;;;;;;5046940;28;20040;-67
2022/10/20 11:13:28;;;;;;;14.88;7.68;;;13.80;99.90;;;;;;5044741;28;20488;-69
2022/10/20 11:16:22;;;;;;;12.57;7.93;;;13.70;99.90;;;;;;5042830;28;20393;-68
2022/10/20 11:19:03;;;;;;;14.65;8.23;;;13.50;99.90;;;;;;5046328;28;20025;-68
2022/10/20 11:21:50;;;;;;;13.45;7.93;;;13.50;99.90;;;;;;5043828;28;20467;-69
2022/10/20 11:24:34;;;;;;;13.15;8.90;;;13.50;99.90;;;;;;5042897;28;20453;-69
2022/10/20 11:27:06;;;;;;;13.93;7.78;;;13.50;99.90;;;;;;5053097;28;20025;-66
2022/10/20 11:29:50;;;;;;;12.20;8.05;;;13.60;99.90;;;;;;5049240;28;20033;-67
2022/10/20 11:32:33;;;;;;;13.57;8.47;;;13.80;99.90;;;;;;5063693;28;20021;-68
2022/10/20 11:35:29;;;;;;;18.38;7.68;;;13.90;99.90;;;;;;5054099;28;20339;-66
2022/10/20 11:38:10;;;;;;;13.57;7.47;;;14.00;99.90;;;;;;5049845;28;20102;-67
2022/10/20 11:40:39;;;;;;;11.80;7.65;;;13.90;99.90;;;;;;5041178;28;20100;-68
2022/10/20 11:43:19;;;;;;;14.15;8.38;;;14.00;99.90;;;;;;5036047;28;20109;-69
2022/10/20 11:45:53;;;;;;;9.75;7.60;;;13.90;99.90;;;;;;5041974;28;20055;-66
2022/10/20 11:48:30;;;;;;;13.00;8.75;;;13.90;99.90;;;;;;5044247;28;20021;-67
2022/10/20 11:50:59;;;;;;;14.20;7.05;;;13.90;99.90;;;;;;5052028;28;20080;-68
2022/10/20 11:54:06;;;;;;;11.52;8.73;;;13.80;99.90;;;;;;5047545;28;20043;-67
2022/10/20 11:56:56;;;;;;;14.45;8.35;;;13.90;99.90;;;;;;5021644;28;20128;-67
2022/10/20 11:59:46;;;;;;;13.57;8.52;;;13.80;99.90;;;;;;5049279;28;20028;-68
2022/10/20 12:02:34;;;;;;;18.50;9.98;;;13.70;99.90;;;;;;5046329;28;20508;-69
2022/10/20 12:05:23;;;;;;;14.50;7.70;;;13.70;99.90;;;;;;5048479;28;20036;-68
2022/10/20 12:08:13;;;;;;;14.90;8.88;;;13.60;99.90;;;;;;5047147;28;20514;-68
2022/10/20 12:10:47;;;;;;;13.30;8.85;;;13.60;99.90;;;;;;5037541;28;20036;-67
2022/10/20 12:13:31;;;;;;;16.55;8.18;;;13.40;99.90;;;;;;5058866;28;20147;-68
2022/10/20 12:15:56;;;;;;;15.20;9.27;;;13.40;99.90;;;;;;5033358;28;20029;-68
2022/10/20 12:18:28;;;;;;;13.50;8.80;;;13.40;99.90;;;;;;5045347;28;20120;-68
2022/10/20 12:21:09;;;;;;;16.20;9.07;;;13.30;99.90;;;;;;5050484;28;20083;-67
2022/10/20 12:23:51;;;;;;;16.33;9.00;;;13.30;99.90;;;;;;5055083;28;20036;-66
2022/10/20 12:27:01;;;;;;;12.32;8.93;;;13.20;99.90;;;;;;5054112;28;20032;-67
2022/10/20 12:29:30;;;;;;;16.05;9.95;;;13.10;99.90;;;;;;5037971;28;20099;-65
2022/10/20 12:32:20;;;;;;;18.38;10.48;;;13.00;99.90;;;;;;5049468;28;20025;-65
2022/10/20 12:34:55;;;;;;;14.30;8.63;;;12.90;99.90;;;;;;5040651;28;20958;-64
2022/10/20 12:37:24;;;;;;;16.95;10.65;;;12.90;99.90;;;;;;5034402;28;20028;-66
2022/10/20 12:39:55;;;;;;;17.77;9.77;;;12.90;99.90;;;;;;5046262;28;20028;-65
2022/10/20 12:42:22;;;;;;;14.15;9.63;;;12.90;99.90;;;;;;5045775;28;20491;-65
2022/10/20 12:44:48;;;;;;;16.05;9.50;;;13.00;99.90;;;;;;5046667;28;20029;-66
2022/10/20 12:47:24;;;;;;;17.67;10.25;;;12.90;99.90;;;;;;5054026;28;20128;-64
2022/10/20 12:50:07;;;;;;;20.35;10.30;;;12.90;99.90;;;;;;5049247;28;20094;-65
2022/10/20 12:52:38;;;;;;;17.05;10.80;;;12.80;99.90;;;;;;5050923;28;20030;-65
2022/10/20 12:55:04;;;;;;;19.75;10.48;;;12.80;99.90;;;;;;5042664;28;20088;-67
2022/10/20 12:57:41;;;;;;;21.48;10.57;;;12.70;99.90;;;;;;5041441;28;20441;-65
2022/10/20 13:00:27;;;;;;;19.02;12.52;;;12.70;99.90;;;;;;5051310;28;20032;-64
2022/10/20 13:02:57;;;;;;;25.30;11.93;;;12.70;99.90;;;;;;4983123;28;20045;-67
2022/10/20 13:05:25;;;;;;;18.08;11.32;;;12.80;99.90;;;;;;5046034;28;20151;-68